Time;durP1;ratioP1;P1;durP2;ratioP2;P2;SDS_P1;SDS_P2;PMS_P1;PMS_P2;Temp;Humidity;BMP_temperature;BMP_pressure;BME280_temperature;BME280_humidity;BME280_pressure;Samples;Min_cycle;Max_cycle;Signal;HPM_P1;HPM_P2
2022/09/25 00:01:13;;;;;;;;;4.75;3.75;;;;;;;;5003854;28;8817;-77
2022/09/25 00:03:41;;;;;;;;;4.00;4.00;;;;;;;;5007308;28;8888;-77
2022/09/25 00:06:12;;;;;;;;;3.50;3.50;;;;;;;;5006209;28;8880;-77
2022/09/25 00:08:39;;;;;;;;;4.00;4.00;;;;;;;;5007247;28;8892;-77
2022/09/25 00:11:08;;;;;;;;;5.50;4.25;;;;;;;;5006054;28;8852;-77
2022/09/25 00:13:35;;;;;;;;;5.00;4.00;;;;;;;;5005737;28;8892;-77
2022/09/25 00:16:03;;;;;;;;;5.25;4.75;;;;;;;;5006024;28;8864;-77
2022/09/25 00:21:15;;;;;;;;;3.25;3.25;;;;;;;;4955446;28;8891;-77
2022/09/25 00:23:44;;;;;;;;;4.00;4.00;;;;;;;;5000439;28;8957;-78
2022/09/25 00:26:12;;;;;;;;;3.75;3.75;;;;;;;;5004979;28;8892;-77
2022/09/25 00:28:40;;;;;;;;;2.00;2.00;;;;;;;;5005927;28;8868;-77
2022/09/25 00:31:10;;;;;;;;;2.50;2.50;;;;;;;;5004776;28;8817;-78
2022/09/25 00:33:37;;;;;;;;;5.25;5.25;;;;;;;;5004850;28;8856;-78
2022/09/25 00:36:06;;;;;;;;;7.00;4.00;;;;;;;;5003820;28;8864;-77
2022/09/25 00:38:36;;;;;;;;;3.00;3.00;;;;;;;;5006157;28;8888;-77
2022/09/25 00:41:06;;;;;;;;;2.75;2.75;;;;;;;;5005057;28;8946;-77
2022/09/25 00:43:36;;;;;;;;;2.00;2.00;;;;;;;;4998444;28;8896;-77
2022/09/25 00:46:08;;;;;;;;;3.25;3.25;;;;;;;;5005007;28;8883;-78
2022/09/25 00:48:35;;;;;;;;;3.00;3.00;;;;;;;;5003821;28;8872;-78
2022/09/25 00:51:03;;;;;;;;;4.25;3.00;;;;;;;;5000378;28;8852;-79
2022/09/25 00:53:34;;;;;;;;;2.50;2.50;;;;;;;;5004345;28;8864;-77
2022/09/25 00:56:04;;;;;;;;;2.75;2.50;;;;;;;;5002506;28;9007;-77
2022/09/25 00:58:33;;;;;;;;;3.00;3.00;;;;;;;;5003463;28;8916;-78
2022/09/25 01:01:00;;;;;;;;;2.50;2.50;;;;;;;;5005180;28;8813;-78
2022/09/25 01:03:28;;;;;;;;;5.00;3.25;;;;;;;;5004850;28;8868;-77
2022/09/25 01:05:56;;;;;;;;;4.50;3.00;;;;;;;;5005178;28;9661;-77
2022/09/25 01:08:26;;;;;;;;;4.50;3.00;;;;;;;;5005713;28;8876;-77
2022/09/25 01:10:55;;;;;;;;;2.00;2.00;;;;;;;;5004803;28;8872;-77
2022/09/25 01:13:22;;;;;;;;;3.00;3.00;;;;;;;;5005154;28;8880;-77
2022/09/25 01:16:07;;;;;;;;;1.50;1.50;;;;;;;;5004043;28;8887;-79
2022/09/25 01:18:45;;;;;;;;;3.75;2.25;;;;;;;;5004612;28;8881;-78
2022/09/25 01:21:28;;;;;;;;;4.00;4.00;;;;;;;;5005238;28;8876;-78
2022/09/25 01:24:24;;;;;;;;;5.50;3.00;;;;;;;;5004254;28;9646;-79
2022/09/25 01:27:14;;;;;;;;;3.00;3.00;;;;;;;;5003841;28;8891;-78
2022/09/25 01:29:49;;;;;;;;;5.75;2.25;;;;;;;;4994687;28;9660;-79
2022/09/25 01:32:21;;;;;;;;;2.00;2.00;;;;;;;;5002506;28;8821;-77
2022/09/25 01:34:53;;;;;;;;;3.00;2.00;;;;;;;;5004339;28;8883;-77
2022/09/25 01:37:25;;;;;;;;;3.25;3.25;;;;;;;;5003474;28;9638;-77
2022/09/25 01:40:00;;;;;;;;;4.00;2.50;;;;;;;;4997920;28;8888;-78
2022/09/25 01:42:29;;;;;;;;;2.75;2.75;;;;;;;;5004458;28;8866;-77
2022/09/25 01:45:01;;;;;;;;;3.00;3.00;;;;;;;;5003679;28;8890;-78
2022/09/25 01:47:31;;;;;;;;;2.25;2.25;;;;;;;;5002487;28;8864;-77
2022/09/25 01:50:00;;;;;;;;;2.25;2.25;;;;;;;;5018657;28;8872;-77
2022/09/25 01:52:32;;;;;;;;;2.25;2.25;;;;;;;;5002930;28;8880;-78
2022/09/25 01:55:05;;;;;;;;;2.00;2.00;;;;;;;;5001992;28;8864;-78
2022/09/25 01:57:38;;;;;;;;;3.25;3.25;;;;;;;;5001233;28;9792;-78
2022/09/25 02:00:09;;;;;;;;;3.75;3.75;;;;;;;;5002299;28;8860;-78
2022/09/25 02:02:41;;;;;;;;;7.00;3.50;;;;;;;;4999720;28;8876;-78
2022/09/25 02:05:12;;;;;;;;;6.00;5.00;;;;;;;;5003790;28;8904;-79
2022/09/25 02:07:44;;;;;;;;;6.00;5.75;;;;;;;;5003133;28;8872;-77
2022/09/25 02:10:14;;;;;;;;;4.00;4.00;;;;;;;;5005183;28;8911;-78
2022/09/25 02:12:46;;;;;;;;;4.00;4.00;;;;;;;;5004246;28;8943;-77
2022/09/25 02:15:18;;;;;;;;;7.00;5.00;;;;;;;;5003290;28;8898;-78
2022/09/25 02:20:40;;;;;;;;;3.75;3.75;;;;;;;;5003163;28;8840;-79
2022/09/25 02:23:14;;;;;;;;;6.00;4.25;;;;;;;;4994544;28;8942;-78
2022/09/25 02:25:44;;;;;;;;;6.00;6.00;;;;;;;;5002519;28;9771;-77
2022/09/25 02:28:11;;;;;;;;;4.50;4.50;;;;;;;;4996834;28;9041;-78
2022/09/25 02:30:40;;;;;;;;;6.67;6.00;;;;;;;;5003323;28;9583;-78
2022/09/25 02:33:07;;;;;;;;;5.00;5.00;;;;;;;;5002501;28;8911;-78
2022/09/25 02:35:34;;;;;;;;;5.00;5.00;;;;;;;;5002156;28;9164;-77
2022/09/25 02:38:02;;;;;;;;;6.00;4.33;;;;;;;;5001461;28;8993;-77
2022/09/25 02:40:34;;;;;;;;;9.00;6.00;;;;;;;;5004149;28;8964;-78
2022/09/25 02:43:09;;;;;;;;;6.33;6.33;;;;;;;;5002336;28;8967;-78
2022/09/25 02:45:45;;;;;;;;;9.00;8.67;;;;;;;;5001946;28;8957;-78
2022/09/25 02:48:16;;;;;;;;;4.33;4.33;;;;;;;;4999859;28;9094;-77
2022/09/25 02:50:47;;;;;;;;;6.33;5.00;;;;;;;;5002312;28;8983;-76
2022/09/25 02:53:20;;;;;;;;;7.00;7.00;;;;;;;;5002978;28;9039;-77
2022/09/25 02:55:52;;;;;;;;;9.00;7.00;;;;;;;;5001976;28;9024;-77
2022/09/25 02:58:24;;;;;;;;;8.00;8.00;;;;;;;;5002478;28;9049;-78
2022/09/25 03:00:54;;;;;;;;;9.67;9.00;;;;;;;;5002503;28;9015;-78
2022/09/25 03:03:24;;;;;;;;;9.00;6.00;;;;;;;;5001757;28;9071;-77
2022/09/25 03:05:56;;;;;;;;;11.00;8.00;;;;;;;;5003321;28;9066;-77
2022/09/25 03:08:40;;;;;;;;;9.67;9.00;;;;;;;;4998741;28;9036;-79
2022/09/25 03:11:09;;;;;;;;;11.00;11.00;;;;;;;;5003793;28;9156;-77
2022/09/25 03:13:37;;;;;;;;;12.00;10.67;;;;;;;;5008432;28;9242;-77
2022/09/25 03:16:10;;;;;;;;;12.00;10.33;;;;;;;;5003773;28;9222;-77
2022/09/25 03:18:38;;;;;;;;;11.33;11.33;;;;;;;;5003612;28;9182;-79
2022/09/25 03:21:05;;;;;;;;;11.00;9.00;;;;;;;;5001762;28;9364;-77
2022/09/25 03:23:32;;;;;;;;;11.00;11.00;;;;;;;;5002267;28;9363;-77
2022/09/25 03:26:00;;;;;;;;;10.33;10.33;;;;;;;;5000002;28;9385;-77
2022/09/25 03:28:27;;;;;;;;;14.50;14.50;;;;;;;;5002650;28;9383;-77
2022/09/25 03:30:59;;;;;;;;;12.67;10.67;;;;;;;;5001539;28;10274;-78
2022/09/25 03:33:30;;;;;;;;;8.50;7.00;;;;;;;;5002366;28;9587;-79
2022/09/25 03:36:01;;;;;;;;;8.67;8.67;;;;;;;;4992615;28;9400;-80
2022/09/25 03:38:29;;;;;;;;;14.25;12.75;;;;;;;;5001679;28;9461;-79
2022/09/25 03:40:56;;;;;;;;;9.50;9.50;;;;;;;;5003691;28;9529;-79
2022/09/25 03:43:23;;;;;;;;;12.00;9.25;;;;;;;;5001273;28;9572;-79
2022/09/25 03:45:51;;;;;;;;;8.50;8.50;;;;;;;;5002938;28;9428;-79
2022/09/25 03:48:18;;;;;;;;;11.00;9.75;;;;;;;;5002105;28;9582;-79
2022/09/25 03:50:49;;;;;;;;;10.00;10.00;;;;;;;;5003030;28;9611;-80
2022/09/25 03:53:17;;;;;;;;;10.00;9.25;;;;;;;;5002893;28;9600;-80
2022/09/25 03:55:47;;;;;;;;;10.00;10.00;;;;;;;;5001834;28;9447;-78
2022/09/25 03:58:15;;;;;;;;;10.75;9.00;;;;;;;;5002513;28;9603;-79
2022/09/25 04:00:43;;;;;;;;;8.50;8.50;;;;;;;;5001121;28;9505;-78
2022/09/25 04:03:10;;;;;;;;;9.00;9.00;;;;;;;;5002232;28;9493;-79
2022/09/25 04:05:37;;;;;;;;;9.00;9.00;;;;;;;;5001755;28;9544;-78
2022/09/25 04:08:06;;;;;;;;;9.50;9.25;;;;;;;;5001735;28;10394;-79
2022/09/25 04:10:37;;;;;;;;;10.50;9.25;;;;;;;;5006394;28;9563;-78
2022/09/25 04:13:05;;;;;;;;;11.25;9.75;;;;;;;;5006359;28;9508;-78
2022/09/25 04:15:32;;;;;;;;;8.25;8.25;;;;;;;;5012193;28;9537;-79
2022/09/25 04:17:59;;;;;;;;;10.50;9.00;;;;;;;;5005294;28;9631;-78
2022/09/25 04:20:27;;;;;;;;;11.00;9.00;;;;;;;;5005752;28;9723;-77
2022/09/25 04:22:54;;;;;;;;;7.00;7.00;;;;;;;;5003457;28;10501;-78
2022/09/25 04:25:24;;;;;;;;;10.00;10.00;;;;;;;;5005906;28;9636;-77
2022/09/25 04:27:52;;;;;;;;;8.75;8.75;;;;;;;;5005620;28;10424;-78
2022/09/25 04:30:21;;;;;;;;;9.25;9.25;;;;;;;;4986352;28;9791;-78
2022/09/25 04:35:33;;;;;;;;;5.75;5.75;;;;;;;;5002091;28;9741;-78
2022/09/25 04:38:01;;;;;;;;;10.25;8.50;;;;;;;;5005438;28;9789;-77
2022/09/25 04:40:30;;;;;;;;;9.50;7.00;;;;;;;;5005010;28;9748;-79
2022/09/25 04:42:57;;;;;;;;;13.00;9.00;;;;;;;;5005398;28;9658;-79
2022/09/25 04:45:26;;;;;;;;;7.00;5.75;;;;;;;;5005363;28;9963;-78
2022/09/25 04:47:53;;;;;;;;;8.00;8.00;;;;;;;;5004090;28;9878;-79
2022/09/25 04:50:21;;;;;;;;;9.50;9.50;;;;;;;;5005361;28;9800;-79
2022/09/25 04:52:50;;;;;;;;;8.50;6.00;;;;;;;;5003388;28;9820;-79
2022/09/25 04:55:17;;;;;;;;;6.25;6.25;;;;;;;;5004774;28;9722;-79
2022/09/25 04:57:47;;;;;;;;;10.00;8.25;;;;;;;;5004128;28;9751;-79
2022/09/25 05:00:16;;;;;;;;;8.50;8.00;;;;;;;;5004509;28;9797;-78
2022/09/25 05:02:43;;;;;;;;;8.50;7.25;;;;;;;;5003200;28;9855;-78
2022/09/25 05:05:10;;;;;;;;;12.00;11.00;;;;;;;;5004362;28;9803;-77
2022/09/25 05:07:38;;;;;;;;;9.50;8.25;;;;;;;;5004883;28;9897;-76
2022/09/25 05:10:07;;;;;;;;;13.25;9.25;;;;;;;;5001948;28;10151;-76
2022/09/25 05:12:35;;;;;;;;;11.00;11.00;;;;;;;;5005151;28;10163;-77
2022/09/25 05:15:04;;;;;;;;;6.75;4.50;;;;;;;;5010864;28;10454;-77
2022/09/25 05:17:31;;;;;;;;;7.50;7.50;;;;;;;;5004906;28;9907;-77
2022/09/25 05:19:58;;;;;;;;;6.75;6.75;;;;;;;;5004621;28;10081;-77
2022/09/25 05:22:25;;;;;;;;;7.25;7.25;;;;;;;;5002798;28;10052;-76
2022/09/25 05:24:52;;;;;;;;;5.75;5.75;;;;;;;;5004221;28;10149;-77
2022/09/25 05:27:22;;;;;;;;;9.25;6.50;;;;;;;;5003043;28;10099;-78
2022/09/25 05:29:49;;;;;;;;;7.25;7.25;;;;;;;;5004754;28;10264;-77
2022/09/25 05:32:17;;;;;;;;;7.25;6.50;;;;;;;;5002672;28;10015;-77
2022/09/25 05:34:45;;;;;;;;;11.25;8.50;;;;;;;;4995897;28;10118;-79
2022/09/25 05:37:12;;;;;;;;;8.50;8.50;;;;;;;;5003783;28;10098;-77
2022/09/25 05:39:39;;;;;;;;;9.00;9.00;;;;;;;;5004090;28;10197;-79
2022/09/25 05:42:06;;;;;;;;;8.50;7.75;;;;;;;;5004141;28;10244;-78
2022/09/25 05:44:33;;;;;;;;;6.50;5.50;;;;;;;;5003421;28;10200;-79
2022/09/25 05:47:02;;;;;;;;;9.00;9.00;;;;;;;;5004093;28;10330;-80
2022/09/25 05:49:31;;;;;;;;;5.25;5.25;;;;;;;;5002831;28;10427;-78
2022/09/25 05:51:59;;;;;;;;;7.50;7.50;;;;;;;;5004269;28;11176;-80
2022/09/25 05:54:26;;;;;;;;;5.75;5.75;;;;;;;;5002930;28;10349;-79
2022/09/25 05:56:53;;;;;;;;;6.00;6.00;;;;;;;;5003490;28;10305;-79
2022/09/25 05:59:20;;;;;;;;;6.00;5.25;;;;;;;;5004277;28;10235;-80
2022/09/25 06:01:48;;;;;;;;;5.50;5.00;;;;;;;;5002433;28;10109;-79
2022/09/25 06:04:15;;;;;;;;;8.00;5.50;;;;;;;;5004013;28;10195;-80
2022/09/25 06:06:44;;;;;;;;;8.00;8.00;;;;;;;;5002102;28;10238;-80
2022/09/25 06:09:12;;;;;;;;;6.00;4.00;;;;;;;;5003904;28;10287;-79
2022/09/25 06:11:40;;;;;;;;;5.75;5.75;;;;;;;;4992719;28;10148;-79
2022/09/25 06:14:07;;;;;;;;;5.00;5.00;;;;;;;;5009470;28;10266;-78
2022/09/25 06:16:34;;;;;;;;;5.00;5.00;;;;;;;;5004266;28;10234;-80
2022/09/25 06:19:01;;;;;;;;;5.75;5.00;;;;;;;;5001851;28;10325;-78
2022/09/25 06:21:29;;;;;;;;;8.25;5.75;;;;;;;;5001235;28;10293;-77
2022/09/25 06:23:57;;;;;;;;;5.00;3.25;;;;;;;;5002918;28;10388;-80
2022/09/25 06:26:25;;;;;;;;;2.50;1.00;;;;;;;;5003558;28;10175;-81
2022/09/25 06:28:52;;;;;;;;;5.00;5.00;;;;;;;;5001720;28;10051;-78
2022/09/25 06:31:20;;;;;;;;;5.00;5.00;;;;;;;;4999183;28;11076;-76
2022/09/25 06:33:51;;;;;;;;;5.00;5.00;;;;;;;;4998569;28;10359;-79
2022/09/25 06:36:24;;;;;;;;;4.00;4.00;;;;;;;;5009462;28;10085;-80
2022/09/25 06:38:54;;;;;;;;;5.25;4.25;;;;;;;;4984358;28;10670;-81
2022/09/25 06:41:24;;;;;;;;;4.00;4.00;;;;;;;;4982481;28;10278;-80
2022/09/25 06:43:52;;;;;;;;;4.00;4.00;;;;;;;;4981518;28;10123;-78
2022/09/25 06:46:20;;;;;;;;;7.00;7.00;;;;;;;;4981305;28;10166;-79
2022/09/25 06:48:52;;;;;;;;;3.75;3.75;;;;;;;;4982692;28;10345;-82
2022/09/25 06:51:20;;;;;;;;;5.50;4.00;;;;;;;;4983758;28;10131;-76
2022/09/25 06:53:48;;;;;;;;;5.25;5.25;;;;;;;;4979594;28;10137;-80
2022/09/25 06:56:15;;;;;;;;;7.25;4.00;;;;;;;;4981185;28;9991;-77
2022/09/25 06:58:44;;;;;;;;;4.00;4.00;;;;;;;;4980163;28;10005;-78
2022/09/25 07:01:12;;;;;;;;;5.50;4.25;;;;;;;;4982773;28;9944;-76
2022/09/25 07:03:45;;;;;;;;;10.25;5.00;;;;;;;;4982026;28;9959;-77
2022/09/25 07:06:14;;;;;;;;;4.00;4.00;;;;;;;;4982457;28;9998;-77
2022/09/25 07:08:42;;;;;;;;;5.00;5.00;;;;;;;;4982216;28;9907;-81
2022/09/25 07:11:13;;;;;;;;;7.00;5.00;;;;;;;;4981122;28;9901;-81
2022/09/25 07:13:40;;;;;;;;;6.75;6.75;;;;;;;;4981823;28;9890;-82
2022/09/25 07:16:12;;;;;;;;;5.75;5.75;;;;;;;;4980801;28;9915;-80
2022/09/25 07:18:40;;;;;;;;;8.00;5.00;;;;;;;;4984470;28;9800;-79
2022/09/25 07:21:09;;;;;;;;;4.75;4.75;;;;;;;;4982963;28;10695;-76
2022/09/25 07:23:37;;;;;;;;;5.75;5.75;;;;;;;;4984220;28;9667;-80
2022/09/25 07:26:07;;;;;;;;;5.50;4.00;;;;;;;;4983836;28;9821;-79
2022/09/25 07:28:34;;;;;;;;;10.25;6.00;;;;;;;;4981650;28;9739;-79
2022/09/25 07:31:13;;;;;;;;;4.75;4.75;;;;;;;;4982888;28;9677;-83
2022/09/25 07:33:40;;;;;;;;;7.75;5.00;;;;;;;;4982070;28;9662;-81
2022/09/25 07:36:08;;;;;;;;;8.50;3.25;;;;;;;;4980757;28;9667;-79
2022/09/25 07:38:36;;;;;;;;;4.00;4.00;;;;;;;;4980358;28;9615;-78
2022/09/25 07:41:04;;;;;;;;;4.25;3.00;;;;;;;;4983861;28;10211;-79
2022/09/25 07:43:31;;;;;;;;;4.00;4.00;;;;;;;;4983726;28;9568;-79
2022/09/25 07:45:59;;;;;;;;;4.00;4.00;;;;;;;;4983139;28;10106;-80
2022/09/25 07:48:29;;;;;;;;;4.25;4.25;;;;;;;;4985164;28;9392;-82
2022/09/25 07:51:00;;;;;;;;;3.67;3.67;;;;;;;;4983968;28;10300;-80
2022/09/25 07:53:27;;;;;;;;;5.00;3.00;;;;;;;;4985564;28;9358;-79
2022/09/25 07:55:58;;;;;;;;;3.00;3.00;;;;;;;;4983849;28;9392;-80
2022/09/25 07:58:25;;;;;;;;;3.00;3.00;;;;;;;;4984840;28;9371;-80
2022/09/25 08:00:53;;;;;;;;;4.00;4.00;;;;;;;;4984973;28;9044;-79
2022/09/25 08:03:22;;;;;;;;;3.00;3.00;;;;;;;;4984282;28;9219;-80
2022/09/25 08:05:58;;;;;;;;;3.67;3.67;;;;;;;;4984748;28;9025;-80
2022/09/25 08:08:25;;;;;;;;;6.33;3.00;;;;;;;;4982929;28;9081;-80
2022/09/25 08:10:54;;;;;;;;;5.00;3.00;;;;;;;;4986107;28;9056;-81
2022/09/25 08:13:21;;;;;;;;;0.00;0.00;;;;;;;;4983808;28;9043;-80
2022/09/25 08:15:49;;;;;;;;;3.50;3.25;;;;;;;;4982759;28;8883;-79
2022/09/25 08:18:16;;;;;;;;;3.50;2.50;;;;;;;;4985609;28;8863;-80
2022/09/25 08:20:43;;;;;;;;;2.00;2.00;;;;;;;;4983301;28;8871;-80
2022/09/25 08:23:12;;;;;;;;;3.00;3.00;;;;;;;;4982274;28;8901;-76
2022/09/25 08:25:39;;;;;;;;;1.75;1.75;;;;;;;;4983698;28;8941;-75
2022/09/25 08:28:06;;;;;;;;;0.50;0.50;;;;;;;;4986166;28;9713;-76
2022/09/25 08:30:34;;;;;;;;;1.00;1.00;;;;;;;;4982393;28;8858;-72
2022/09/25 08:33:01;;;;;;;;;1.50;0.50;;;;;;;;4985821;28;8866;-74
2022/09/25 08:35:28;;;;;;;;;2.00;1.00;;;;;;;;4966867;28;8866;-73
2022/09/25 08:37:58;;;;;;;;;0.00;0.00;;;;;;;;4979495;28;8905;-74
2022/09/25 08:40:29;;;;;;;;;0.50;0.50;;;;;;;;4983862;28;8855;-74
2022/09/25 08:42:57;;;;;;;;;1.00;1.00;;;;;;;;4979743;28;9023;-74
2022/09/25 08:51:06;;;;;;;;;0.75;0.75;;;;;;;;4982935;28;8871;-74
2022/09/25 08:53:34;;;;;;;;;1.50;1.00;;;;;;;;4982833;28;9519;-73
2022/09/25 08:56:16;;;;;;;;;0.25;0.25;;;;;;;;4979733;28;8952;-74
2022/09/25 08:58:51;;;;;;;;;1.00;1.00;;;;;;;;4983487;28;8903;-75
2022/09/25 09:01:29;;;;;;;;;1.75;1.00;;;;;;;;4981061;28;8883;-74
2022/09/25 09:04:04;;;;;;;;;0.00;0.00;;;;;;;;4982430;28;8879;-74
2022/09/25 09:06:33;;;;;;;;;0.75;0.75;;;;;;;;4978768;28;8873;-75
2022/09/25 09:09:08;;;;;;;;;0.00;0.00;;;;;;;;4981258;28;8875;-75
2022/09/25 09:11:41;;;;;;;;;0.00;0.00;;;;;;;;4981201;28;8918;-75
2022/09/25 09:14:14;;;;;;;;;1.25;0.75;;;;;;;;4980082;28;9629;-75
2022/09/25 09:16:50;;;;;;;;;0.00;0.00;;;;;;;;4980611;28;8901;-75
2022/09/25 09:19:17;;;;;;;;;1.00;0.00;;;;;;;;4980434;28;8902;-74
2022/09/25 09:21:49;;;;;;;;;0.00;0.00;;;;;;;;4980310;28;8859;-74
2022/09/25 09:24:18;;;;;;;;;0.40;0.00;;;;;;;;4983867;28;8867;-75
2022/09/25 09:27:15;;;;;;;;;0.20;0.20;;;;;;;;4981950;28;8913;-75
2022/09/25 09:29:53;;;;;;;;;0.00;0.00;;;;;;;;4982204;28;8875;-75
2022/09/25 09:32:32;;;;;;;;;0.00;0.00;;;;;;;;4980669;28;8833;-75
2022/09/25 09:35:09;;;;;;;;;0.00;0.00;;;;;;;;4980938;28;8887;-76
2022/09/25 09:37:50;;;;;;;;;0.40;0.40;;;;;;;;4980973;28;8882;-76
2022/09/25 09:40:24;;;;;;;;;0.00;0.00;;;;;;;;4980755;28;8874;-75
2022/09/25 09:43:02;;;;;;;;;0.00;0.00;;;;;;;;4983308;28;8898;-76
2022/09/25 09:45:39;;;;;;;;;0.00;0.00;;;;;;;;4980748;28;8879;-77
2022/09/25 09:48:14;;;;;;;;;1.00;0.00;;;;;;;;4982409;28;8867;-74
2022/09/25 09:50:44;;;;;;;;;0.00;0.00;;;;;;;;4983146;28;8855;-75
2022/09/25 09:53:18;;;;;;;;;0.00;0.00;;;;;;;;4977322;28;8997;-76
2022/09/25 09:55:48;;;;;;;;;0.00;0.00;;;;;;;;4984015;28;8976;-76
2022/09/25 09:58:20;;;;;;;;;1.60;0.00;;;;;;;;4983316;28;8870;-77
2022/09/25 10:00:49;;;;;;;;;0.00;0.00;;;;;;;;4983569;28;8837;-78
2022/09/25 10:03:20;;;;;;;;;0.00;0.00;;;;;;;;4984066;28;8855;-76
2022/09/25 10:05:49;;;;;;;;;1.40;0.00;;;;;;;;4983327;28;8874;-73
2022/09/25 10:08:17;;;;;;;;;0.00;0.00;;;;;;;;4983723;28;8875;-73
2022/09/25 10:10:47;;;;;;;;;0.00;0.00;;;;;;;;4982661;28;8871;-73
2022/09/25 10:13:18;;;;;;;;;0.00;0.00;;;;;;;;4981965;28;8891;-73
2022/09/25 10:15:50;;;;;;;;;0.00;0.00;;;;;;;;4982351;28;8859;-75
2022/09/25 10:18:17;;;;;;;;;1.00;1.00;;;;;;;;4980972;28;8948;-74
2022/09/25 10:20:47;;;;;;;;;1.00;1.00;;;;;;;;4983056;28;8887;-73
2022/09/25 10:23:31;;;;;;;;;1.00;0.00;;;;;;;;4980617;28;9009;-76
2022/09/25 10:25:58;;;;;;;;;0.00;0.00;;;;;;;;4982857;28;8911;-74
2022/09/25 10:28:31;;;;;;;;;7.80;6.20;;;;;;;;4981213;28;8879;-76
2022/09/25 10:31:00;;;;;;;;;1.00;1.00;;;;;;;;4982935;28;8901;-75
2022/09/25 10:33:29;;;;;;;;;2.00;1.00;;;;;;;;4983323;28;8882;-75
2022/09/25 10:35:58;;;;;;;;;0.80;0.00;;;;;;;;4983147;28;8949;-76
2022/09/25 10:38:31;;;;;;;;;0.00;0.00;;;;;;;;4983153;28;8953;-74
2022/09/25 10:41:02;;;;;;;;;0.40;0.40;;;;;;;;4975686;28;8944;-79
2022/09/25 10:43:30;;;;;;;;;1.00;0.00;;;;;;;;4981235;28;8882;-74
2022/09/25 10:50:09;;;;;;;;;0.00;0.00;;;;;;;;4982735;28;8863;-74
2022/09/25 10:52:06;;;;;;;;;0.00;0.00;;;;;;;;4983669;28;8965;-75
2022/09/25 10:54:34;;;;;;;;;0.00;0.00;;;;;;;;4982134;28;8870;-82
2022/09/25 10:57:14;;;;;;;;;0.00;0.00;;;;;;;;4981116;28;8909;-73
2022/09/25 10:59:41;;;;;;;;;0.00;0.00;;;;;;;;4979531;28;9664;-75
2022/09/25 11:02:25;;;;;;;;;0.00;0.00;;;;;;;;4980401;28;8823;-74
2022/09/25 11:04:53;;;;;;;;;0.00;0.00;;;;;;;;4980223;28;8869;-79
2022/09/25 11:07:26;;;;;;;;;0.00;0.00;;;;;;;;4976694;28;8883;-77
2022/09/25 11:09:54;;;;;;;;;0.00;0.00;;;;;;;;4980801;28;8874;-77
2022/09/25 11:12:23;;;;;;;;;0.80;0.80;;;;;;;;4979599;28;8902;-78
2022/09/25 11:14:57;;;;;;;;;0.00;0.00;;;;;;;;4982091;28;8874;-83
2022/09/25 11:17:39;;;;;;;;;0.00;0.00;;;;;;;;4982778;28;8905;-80
2022/09/25 11:20:26;;;;;;;;;2.00;0.00;;;;;;;;4985561;28;8914;-74
2022/09/25 11:23:03;;;;;;;;;1.00;1.00;;;;;;;;4984343;28;8886;-78
2022/09/25 11:25:46;;;;;;;;;2.00;0.00;;;;;;;;4983643;28;8855;-75
2022/09/25 11:28:18;;;;;;;;;0.00;0.00;;;;;;;;4983245;28;8909;-76
2022/09/25 11:30:51;;;;;;;;;0.00;0.00;;;;;;;;4983176;28;8811;-81
2022/09/25 11:33:27;;;;;;;;;0.00;0.00;;;;;;;;4985556;28;8871;-76
2022/09/25 11:36:02;;;;;;;;;0.00;0.00;;;;;;;;4987486;28;8885;-79
2022/09/25 11:41:28;;;;;;;;;1.60;0.00;;;;;;;;4985765;28;8867;-78
2022/09/25 11:44:05;;;;;;;;;3.60;0.00;;;;;;;;4983903;28;8863;-76
2022/09/25 11:46:40;;;;;;;;;0.00;0.00;;;;;;;;4984675;28;8879;-79
2022/09/25 11:49:21;;;;;;;;;0.00;0.00;;;;;;;;4984181;28;8968;-79
2022/09/25 11:52:09;;;;;;;;;0.00;0.00;;;;;;;;4985302;28;8875;-77
2022/09/25 11:54:48;;;;;;;;;0.00;0.00;;;;;;;;4984772;28;9554;-77
2022/09/25 11:57:21;;;;;;;;;1.20;0.80;;;;;;;;4984731;28;8859;-76
2022/09/25 12:00:06;;;;;;;;;0.00;0.00;;;;;;;;4981506;28;8898;-75
2022/09/25 12:03:02;;;;;;;;;0.00;0.00;;;;;;;;4983838;28;8839;-79
2022/09/25 12:05:50;;;;;;;;;0.00;0.00;;;;;;;;4985578;28;8899;-74
2022/09/25 12:08:26;;;;;;;;;0.00;0.00;;;;;;;;4985168;28;8878;-89
2022/09/25 12:11:00;;;;;;;;;0.00;0.00;;;;;;;;4980939;28;8895;-82
2022/09/25 12:13:37;;;;;;;;;0.00;0.00;;;;;;;;4982663;28;8909;-82
2022/09/25 12:16:13;;;;;;;;;0.00;0.00;;;;;;;;4982762;28;8910;-76
2022/09/25 12:19:04;;;;;;;;;0.00;0.00;;;;;;;;4983181;28;8878;-81
2022/09/25 12:21:40;;;;;;;;;0.00;0.00;;;;;;;;4983280;28;8891;-75
2022/09/25 12:24:15;;;;;;;;;0.00;0.00;;;;;;;;4985220;28;9002;-79
2022/09/25 12:26:50;;;;;;;;;0.00;0.00;;;;;;;;4982985;28;8855;-80
2022/09/25 12:29:32;;;;;;;;;0.00;0.00;;;;;;;;4982865;28;8875;-80
2022/09/25 12:32:05;;;;;;;;;0.00;0.00;;;;;;;;4985827;28;8917;-76
2022/09/25 12:34:51;;;;;;;;;0.00;0.00;;;;;;;;4983716;28;8939;-79
2022/09/25 12:37:28;;;;;;;;;0.00;0.00;;;;;;;;4985746;28;8871;-75
2022/09/25 12:39:58;;;;;;;;;0.00;0.00;;;;;;;;4985165;28;8871;-76
2022/09/25 12:42:36;;;;;;;;;0.00;0.00;;;;;;;;4985593;28;8878;-77
2022/09/25 12:45:12;;;;;;;;;0.00;0.00;;;;;;;;4984592;28;8883;-80
2022/09/25 12:47:45;;;;;;;;;0.00;0.00;;;;;;;;4984239;28;8874;-74
2022/09/25 12:50:16;;;;;;;;;0.00;0.00;;;;;;;;4984923;28;8990;-76
2022/09/25 12:52:50;;;;;;;;;0.40;0.00;;;;;;;;4985506;28;8885;-76
2022/09/25 12:55:19;;;;;;;;;0.00;0.00;;;;;;;;4983526;28;8863;-80
2022/09/25 12:57:50;;;;;;;;;1.00;0.00;;;;;;;;4985716;28;8886;-77
2022/09/25 13:00:20;;;;;;;;;0.00;0.00;;;;;;;;4977554;28;8859;-79
2022/09/25 13:02:53;;;;;;;;;0.00;0.00;;;;;;;;4985173;28;8900;-78
2022/09/25 13:05:25;;;;;;;;;0.00;0.00;;;;;;;;4982925;28;8949;-79
2022/09/25 13:07:58;;;;;;;;;0.00;0.00;;;;;;;;4984394;28;9660;-76
2022/09/25 13:10:33;;;;;;;;;0.40;0.40;;;;;;;;4983929;28;8875;-74
2022/09/25 13:13:03;;;;;;;;;0.00;0.00;;;;;;;;4983108;28;8891;-76
2022/09/25 13:15:34;;;;;;;;;0.00;0.00;;;;;;;;4984415;28;8968;-80
2022/09/25 13:18:01;;;;;;;;;0.00;0.00;;;;;;;;4983456;28;8866;-83
2022/09/25 13:20:47;;;;;;;;;0.00;0.00;;;;;;;;4985025;28;9660;-78
2022/09/25 13:23:23;;;;;;;;;0.00;0.00;;;;;;;;4984014;28;8863;-76
2022/09/25 13:26:00;;;;;;;;;0.00;0.00;;;;;;;;4982936;28;8882;-79
2022/09/25 13:28:30;;;;;;;;;0.00;0.00;;;;;;;;4980457;28;8863;-79
2022/09/25 13:31:04;;;;;;;;;0.00;0.00;;;;;;;;4980007;28;8874;-82
2022/09/25 13:33:41;;;;;;;;;0.00;0.00;;;;;;;;4982717;28;9021;-81
2022/09/25 13:36:10;;;;;;;;;0.00;0.00;;;;;;;;4981204;28;8888;-78
2022/09/25 13:41:31;;;;;;;;;0.20;0.20;;;;;;;;4982585;28;8859;-83
2022/09/25 13:44:39;;;;;;;;;0.00;0.00;;;;;;;;4980749;28;8898;-78
2022/09/25 13:47:42;;;;;;;;;0.00;0.00;;;;;;;;4984873;28;8908;-75
2022/09/25 13:50:21;;;;;;;;;0.00;0.00;;;;;;;;4983117;28;8961;-76
2022/09/25 13:53:16;;;;;;;;;0.00;0.00;;;;;;;;4982695;28;9385;-77
2022/09/25 13:56:05;;;;;;;;;0.00;0.00;;;;;;;;4975849;28;8909;-74
2022/09/25 13:59:00;;;;;;;;;0.00;0.00;;;;;;;;4981766;28;8875;-73
2022/09/25 14:01:35;;;;;;;;;0.40;0.40;;;;;;;;4979651;28;8819;-78
2022/09/25 14:04:09;;;;;;;;;0.00;0.00;;;;;;;;4980598;28;8907;-78
2022/09/25 14:06:38;;;;;;;;;0.00;0.00;;;;;;;;4981723;28;8878;-73
2022/09/25 14:09:09;;;;;;;;;0.00;0.00;;;;;;;;4981441;28;8887;-75
2022/09/25 14:11:45;;;;;;;;;1.00;0.00;;;;;;;;4980661;28;8863;-72
2022/09/25 14:14:25;;;;;;;;;0.00;0.00;;;;;;;;4982574;28;8867;-77
2022/09/25 14:16:54;;;;;;;;;0.00;0.00;;;;;;;;4981842;28;8867;-75
2022/09/25 14:19:28;;;;;;;;;0.00;0.00;;;;;;;;4980322;28;9647;-72
2022/09/25 14:21:57;;;;;;;;;0.00;0.00;;;;;;;;4979280;28;8851;-73
2022/09/25 14:24:27;;;;;;;;;0.00;0.00;;;;;;;;4978292;28;9212;-79
2022/09/25 14:26:58;;;;;;;;;0.00;0.00;;;;;;;;4979486;28;8871;-73
2022/09/25 14:29:27;;;;;;;;;0.00;0.00;;;;;;;;4980062;28;8878;-75
2022/09/25 14:32:11;;;;;;;;;1.00;0.00;;;;;;;;4981875;28;8889;-74
2022/09/25 14:35:03;;;;;;;;;0.00;0.00;;;;;;;;4982293;28;8977;-74
2022/09/25 14:37:52;;;;;;;;;0.00;0.00;;;;;;;;4980235;28;9851;-75
2022/09/25 14:40:23;;;;;;;;;0.00;0.00;;;;;;;;4981371;28;8866;-76
2022/09/25 14:43:04;;;;;;;;;0.00;0.00;;;;;;;;4978724;28;8905;-78
2022/09/25 14:45:43;;;;;;;;;1.00;0.00;;;;;;;;4979555;28;8894;-76
2022/09/25 14:48:13;;;;;;;;;0.00;0.00;;;;;;;;4979236;28;9759;-78
2022/09/25 14:50:45;;;;;;;;;0.00;0.00;;;;;;;;4992335;28;8905;-77
2022/09/25 14:53:18;;;;;;;;;0.00;0.00;;;;;;;;4980423;28;9644;-76
2022/09/25 14:55:49;;;;;;;;;0.00;0.00;;;;;;;;4979551;28;8875;-78
2022/09/25 14:58:20;;;;;;;;;0.00;0.00;;;;;;;;4981628;28;8894;-79
2022/09/25 15:00:49;;;;;;;;;0.25;0.25;;;;;;;;4979181;28;8839;-77
2022/09/25 15:03:20;;;;;;;;;0.00;0.00;;;;;;;;4980404;28;8889;-76
2022/09/25 15:05:48;;;;;;;;;0.00;0.00;;;;;;;;4980835;28;8877;-76
2022/09/25 15:08:22;;;;;;;;;0.00;0.00;;;;;;;;4980028;28;8871;-78
2022/09/25 15:11:00;;;;;;;;;0.00;0.00;;;;;;;;4981210;28;8874;-76
2022/09/25 15:13:32;;;;;;;;;0.00;0.00;;;;;;;;4978949;28;8871;-75
2022/09/25 15:18:46;;;;;;;;;0.00;0.00;;;;;;;;4979034;28;8827;-77
2022/09/25 15:21:17;;;;;;;;;0.00;0.00;;;;;;;;4978010;28;9458;-80
2022/09/25 15:23:45;;;;;;;;;0.00;0.00;;;;;;;;4981643;28;8891;-78
2022/09/25 15:26:17;;;;;;;;;0.00;0.00;;;;;;;;4980187;28;8900;-73
2022/09/25 15:28:46;;;;;;;;;0.75;0.75;;;;;;;;4981383;28;8936;-73
2022/09/25 15:31:13;;;;;;;;;0.25;0.25;;;;;;;;4980386;28;8812;-75
2022/09/25 15:33:41;;;;;;;;;0.00;0.00;;;;;;;;4980174;28;8862;-75
2022/09/25 15:36:18;;;;;;;;;0.00;0.00;;;;;;;;4979615;28;8867;-73
2022/09/25 15:38:52;;;;;;;;;0.25;0.25;;;;;;;;4976910;28;8949;-73
2022/09/25 15:41:21;;;;;;;;;0.00;0.00;;;;;;;;4980267;28;8882;-73
2022/09/25 15:43:51;;;;;;;;;0.00;0.00;;;;;;;;4982159;28;9531;-76
2022/09/25 15:46:42;;;;;;;;;0.00;0.00;;;;;;;;4981945;28;8859;-73